createdAt,value
2018-07-16T00:00:25.417Z,99.90
2018-07-16T00:02:53.493Z,99.90
2018-07-16T00:05:21.562Z,99.90
2018-07-16T00:07:49.629Z,99.90
2018-07-16T00:10:17.701Z,99.90
2018-07-16T00:12:45.736Z,99.90
2018-07-16T00:15:13.787Z,99.90
2018-07-16T00:17:41.841Z,99.90
2018-07-16T00:22:37.794Z,99.90
2018-07-16T00:25:06.301Z,99.90
2018-07-16T00:27:34.398Z,99.90
2018-07-16T00:30:02.445Z,99.90
2018-07-16T00:32:30.510Z,99.90
2018-07-16T00:34:58.547Z,99.90
2018-07-16T00:37:26.577Z,99.90
2018-07-16T00:39:54.641Z,99.90
2018-07-16T00:42:22.697Z,99.90
2018-07-16T00:44:50.762Z,99.90
2018-07-16T00:47:18.802Z,99.90
2018-07-16T00:49:46.873Z,99.90
2018-07-16T00:52:14.926Z,99.90
2018-07-16T00:54:42.961Z,99.90
2018-07-16T00:57:11.045Z,99.90
2018-07-16T00:59:39.095Z,99.90
2018-07-16T01:02:07.149Z,99.90
2018-07-16T01:04:35.210Z,99.90
2018-07-16T01:07:03.494Z,99.90
2018-07-16T01:09:31.526Z,99.90
2018-07-16T01:11:59.603Z,99.90
2018-07-16T01:14:27.646Z,99.90
2018-07-16T01:16:55.703Z,99.90
2018-07-16T01:19:23.941Z,99.90
2018-07-16T01:21:51.985Z,99.90
2018-07-16T01:24:20.090Z,99.90
2018-07-16T01:26:48.133Z,99.90
2018-07-16T01:31:44.111Z,99.90
2018-07-16T01:34:12.155Z,99.90
2018-07-16T01:36:40.193Z,99.90
2018-07-16T01:39:08.240Z,99.90
2018-07-16T01:41:36.326Z,99.90
2018-07-16T01:44:04.406Z,99.90
2018-07-16T01:46:32.469Z,99.90
2018-07-16T01:49:00.542Z,99.90
2018-07-16T01:51:28.577Z,99.90
2018-07-16T01:53:56.794Z,99.90
2018-07-16T01:56:24.882Z,99.90
2018-07-16T01:58:52.937Z,99.90
2018-07-16T02:01:22.378Z,99.90
2018-07-16T02:03:50.462Z,99.90
2018-07-16T02:06:18.497Z,99.90
2018-07-16T02:08:46.537Z,99.90
2018-07-16T02:11:14.614Z,99.90
2018-07-16T02:13:42.686Z,99.90
2018-07-16T02:16:10.725Z,99.90
2018-07-16T02:18:38.806Z,99.90
2018-07-16T02:21:06.866Z,99.90
2018-07-16T02:23:34.923Z,99.90
2018-07-16T02:26:02.974Z,99.90
2018-07-16T02:28:31.074Z,99.90
2018-07-16T02:30:59.154Z,99.90
2018-07-16T02:33:27.214Z,99.90
2018-07-16T02:35:55.254Z,99.90
2018-07-16T02:38:23.321Z,99.90
2018-07-16T02:40:51.410Z,99.90
2018-07-16T02:43:19.483Z,99.90
2018-07-16T02:45:48.143Z,99.90
2018-07-16T02:48:16.190Z,99.90
2018-07-16T02:50:44.257Z,99.90
2018-07-16T02:53:12.309Z,99.90
2018-07-16T02:55:40.381Z,99.90
2018-07-16T02:58:08.438Z,99.90
2018-07-16T03:00:36.498Z,99.90
2018-07-16T03:03:04.570Z,99.90
2018-07-16T03:05:32.607Z,99.90
2018-07-16T03:08:00.654Z,99.90
2018-07-16T03:10:28.710Z,99.90
2018-07-16T03:12:56.764Z,99.90
2018-07-16T03:15:24.797Z,99.90
2018-07-16T03:17:52.895Z,99.90
2018-07-16T03:22:48.830Z,99.90
2018-07-16T03:25:16.919Z,99.90
2018-07-16T03:27:44.990Z,99.90
2018-07-16T03:30:13.034Z,99.90
2018-07-16T03:32:41.085Z,99.90
2018-07-16T03:37:36.980Z,99.90
2018-07-16T03:40:05.054Z,99.90
2018-07-16T03:42:33.081Z,99.90
2018-07-16T03:45:01.158Z,99.90
2018-07-16T03:47:29.225Z,99.90
2018-07-16T03:49:57.290Z,99.90
2018-07-16T03:52:25.362Z,99.90
2018-07-16T03:54:53.429Z,99.90
2018-07-16T03:57:21.467Z,99.90
2018-07-16T03:59:49.519Z,99.90
2018-07-16T04:02:17.557Z,99.90
2018-07-16T04:04:45.790Z,99.90
2018-07-16T04:07:13.858Z,99.90
2018-07-16T04:09:41.910Z,99.90
2018-07-16T04:12:09.961Z,99.90
2018-07-16T04:14:38.018Z,99.90
2018-07-16T04:17:06.212Z,99.90
2018-07-16T04:19:34.250Z,99.90
2018-07-16T04:22:02.294Z,99.90
2018-07-16T04:24:30.333Z,99.90
2018-07-16T04:26:58.372Z,99.90
2018-07-16T04:29:26.450Z,99.90
2018-07-16T04:31:54.905Z,99.90
2018-07-16T04:34:22.945Z,99.90
2018-07-16T04:36:51.679Z,99.90
2018-07-16T04:39:20.140Z,99.90
2018-07-16T04:41:49.118Z,99.90
2018-07-16T04:44:17.404Z,99.90
2018-07-16T04:46:45.470Z,99.90
2018-07-16T04:49:13.537Z,99.90
2018-07-16T04:51:41.598Z,99.90
2018-07-16T04:54:09.652Z,99.90
2018-07-16T04:56:37.723Z,99.90
2018-07-16T04:59:05.892Z,99.90
2018-07-16T05:01:33.955Z,99.90
2018-07-16T05:04:02.317Z,99.90
2018-07-16T05:06:30.382Z,99.90
2018-07-16T05:11:26.572Z,99.90
2018-07-16T05:13:54.613Z,99.90
2018-07-16T05:16:22.653Z,99.90
2018-07-16T05:18:50.685Z,99.90
2018-07-16T05:21:18.753Z,99.90
2018-07-16T05:23:46.844Z,99.90
2018-07-16T05:26:14.910Z,99.90
2018-07-16T05:28:42.950Z,99.90
2018-07-16T05:31:11.057Z,99.90
2018-07-16T05:33:39.129Z,99.90
2018-07-16T05:36:07.182Z,99.90
2018-07-16T05:38:35.225Z,99.90
2018-07-16T05:41:03.310Z,99.90
2018-07-16T05:43:31.349Z,99.90
2018-07-16T05:45:59.437Z,99.90
2018-07-16T05:48:27.509Z,99.90
2018-07-16T05:50:55.581Z,99.90
2018-07-16T05:53:23.617Z,99.90
2018-07-16T05:55:51.665Z,99.90
2018-07-16T05:58:19.813Z,99.90
2018-07-16T06:00:48.694Z,99.90
2018-07-16T06:03:16.765Z,99.90
2018-07-16T06:05:44.828Z,99.90
2018-07-16T06:08:12.892Z,99.90
2018-07-16T06:10:40.992Z,99.90
2018-07-16T06:13:09.153Z,99.90
2018-07-16T06:15:37.221Z,99.90
2018-07-16T06:18:05.430Z,99.90
2018-07-16T06:20:33.507Z,99.90
2018-07-16T06:23:01.782Z,99.90
2018-07-16T06:25:29.829Z,99.90
2018-07-16T06:27:57.866Z,99.90
2018-07-16T06:30:25.921Z,99.90
2018-07-16T06:32:54.161Z,99.90
2018-07-16T06:35:22.205Z,99.90
2018-07-16T06:40:18.384Z,99.90
2018-07-16T06:42:46.202Z,99.90
2018-07-16T06:45:15.378Z,99.90
2018-07-16T06:47:43.485Z,99.90
2018-07-16T06:50:11.581Z,99.90
2018-07-16T06:52:39.837Z,99.90
2018-07-16T06:55:08.134Z,99.90
2018-07-16T06:57:36.340Z,99.90
2018-07-16T07:00:04.410Z,99.90
2018-07-16T07:02:32.510Z,99.90
2018-07-16T07:05:00.549Z,99.90
2018-07-16T07:07:28.598Z,99.90
2018-07-16T07:09:56.693Z,99.90
2018-07-16T07:12:24.708Z,99.90
2018-07-16T07:14:52.758Z,99.90
2018-07-16T07:17:20.793Z,99.90
2018-07-16T07:19:48.838Z,99.90
2018-07-16T07:22:16.885Z,99.90
2018-07-16T07:24:45.387Z,99.90
2018-07-16T07:27:13.450Z,99.90
2018-07-16T07:29:41.493Z,99.90
2018-07-16T07:32:09.745Z,99.90
2018-07-16T07:34:37.780Z,99.90
2018-07-16T07:37:06.094Z,99.90
2018-07-16T07:39:34.142Z,99.90
2018-07-16T07:42:02.202Z,99.90
2018-07-16T07:44:30.278Z,99.90
2018-07-16T07:46:58.317Z,99.90
2018-07-16T07:49:26.876Z,99.90
2018-07-16T07:51:54.918Z,99.90
2018-07-16T07:54:23.103Z,99.90
2018-07-16T07:56:51.049Z,99.90
2018-07-16T07:59:19.408Z,99.90
2018-07-16T08:01:47.697Z,99.90
2018-07-16T08:04:15.734Z,99.90
2018-07-16T08:06:48.037Z,99.90
2018-07-16T08:09:16.065Z,99.90
2018-07-16T08:11:44.121Z,99.90
2018-07-16T08:14:12.197Z,99.90
2018-07-16T08:16:40.311Z,99.90
2018-07-16T08:19:08.336Z,99.90
2018-07-16T08:21:36.426Z,99.90
2018-07-16T08:24:04.501Z,99.90
2018-07-16T08:26:32.540Z,99.90
2018-07-16T08:29:00.590Z,99.90
2018-07-16T08:31:28.809Z,99.90
2018-07-16T08:33:56.882Z,99.90
2018-07-16T08:36:25.014Z,99.90
2018-07-16T08:38:53.069Z,99.90
2018-07-16T08:41:21.198Z,99.90
2018-07-16T08:46:17.092Z,99.90
2018-07-16T08:48:45.126Z,99.90
2018-07-16T08:59:56.771Z,99.90
2018-07-16T09:02:24.917Z,99.90
2018-07-16T09:04:52.973Z,99.90
2018-07-16T09:07:21.045Z,99.90
2018-07-16T09:09:49.090Z,99.90
2018-07-16T09:12:17.133Z,99.90
2018-07-16T09:14:45.190Z,99.90
2018-07-16T09:17:13.233Z,99.90
2018-07-16T09:19:41.282Z,99.90
2018-07-16T09:22:09.494Z,99.90
2018-07-16T09:24:37.551Z,99.90
2018-07-16T09:27:05.630Z,99.90
2018-07-16T09:29:33.678Z,99.90
2018-07-16T09:32:01.767Z,99.90
2018-07-16T09:34:29.830Z,99.90
2018-07-16T09:36:57.898Z,99.90
2018-07-16T09:39:25.953Z,99.90
2018-07-16T09:41:53.994Z,99.90
2018-07-16T09:44:22.318Z,99.90
2018-07-16T09:46:50.293Z,99.90
2018-07-16T09:49:18.350Z,99.90
2018-07-16T09:54:14.338Z,99.90
2018-07-16T09:56:42.381Z,99.90
2018-07-16T09:59:10.445Z,99.90
2018-07-16T10:01:44.310Z,99.90
2018-07-16T10:04:13.418Z,99.90
2018-07-16T10:06:41.502Z,99.90
2018-07-16T10:09:10.168Z,99.90
2018-07-16T10:11:38.205Z,99.90
2018-07-16T10:14:06.289Z,99.90
2018-07-16T10:16:34.335Z,99.90
2018-07-16T10:19:02.650Z,99.90
2018-07-16T10:21:30.855Z,99.90
2018-07-16T10:23:58.907Z,99.90
2018-07-16T10:26:26.949Z,99.90
2018-07-16T10:28:55.001Z,99.90
2018-07-16T10:31:23.049Z,99.90
2018-07-16T10:33:51.155Z,99.90
2018-07-16T10:36:19.157Z,99.90
2018-07-16T10:38:47.840Z,99.90
2018-07-16T10:41:15.906Z,99.90
2018-07-16T10:43:44.022Z,99.90
2018-07-16T10:46:12.075Z,99.90
2018-07-16T10:48:40.130Z,99.90
2018-07-16T10:53:37.009Z,99.90
2018-07-16T10:56:05.442Z,99.90
2018-07-16T10:58:33.588Z,99.90
2018-07-16T11:01:01.715Z,99.90
2018-07-16T11:06:01.862Z,99.90
2018-07-16T11:08:29.900Z,99.90
2018-07-16T11:10:57.949Z,99.90
2018-07-16T11:13:26.177Z,99.90
2018-07-16T11:15:54.259Z,99.90
2018-07-16T11:18:22.347Z,99.90
2018-07-16T11:20:50.434Z,99.90
2018-07-16T11:23:18.479Z,99.90
2018-07-16T11:25:51.881Z,99.90
2018-07-16T11:28:19.939Z,99.90
2018-07-16T11:30:48.027Z,99.90
2018-07-16T11:33:16.253Z,99.90
2018-07-16T11:35:44.351Z,99.90
2018-07-16T11:38:12.381Z,99.90
2018-07-16T11:40:40.431Z,99.90
2018-07-16T11:43:08.488Z,99.90
2018-07-16T11:45:36.765Z,99.90
2018-07-16T11:48:04.845Z,99.90
2018-07-16T11:50:32.920Z,99.90
2018-07-16T11:53:00.978Z,99.90
2018-07-16T11:55:29.038Z,99.90
2018-07-16T11:57:57.129Z,99.90
2018-07-16T12:00:25.194Z,99.90
2018-07-16T12:02:53.248Z,99.90
2018-07-16T12:05:21.321Z,99.90
2018-07-16T12:07:49.595Z,99.90
2018-07-16T12:10:17.679Z,99.90
2018-07-16T12:12:46.107Z,99.90
2018-07-16T12:15:14.137Z,99.90
2018-07-16T12:17:42.173Z,99.90
2018-07-16T12:20:10.237Z,99.90
2018-07-16T12:22:38.289Z,99.90
2018-07-16T12:25:06.513Z,99.90
2018-07-16T12:27:34.584Z,99.90
2018-07-16T12:30:02.696Z,99.90
2018-07-16T12:32:30.762Z,99.90
2018-07-16T12:34:58.813Z,99.90
2018-07-16T12:37:26.865Z,99.90
2018-07-16T12:39:54.912Z,99.90
2018-07-16T12:44:50.878Z,99.90
2018-07-16T12:47:18.921Z,99.90
2018-07-16T12:49:46.966Z,99.90
2018-07-16T12:52:15.016Z,99.90
2018-07-16T12:54:43.245Z,99.90
2018-07-16T12:57:11.310Z,99.90
2018-07-16T12:59:39.359Z,99.90
2018-07-16T13:02:07.580Z,99.90
2018-07-16T13:04:35.843Z,99.90
2018-07-16T13:07:03.926Z,99.90
2018-07-16T13:09:31.972Z,99.90
2018-07-16T13:12:00.021Z,99.90
2018-07-16T13:14:28.613Z,99.90
2018-07-16T13:16:56.665Z,99.90
2018-07-16T13:19:24.725Z,99.90
2018-07-16T13:21:52.783Z,99.90
2018-07-16T13:24:20.827Z,99.90
2018-07-16T13:26:48.871Z,99.90
2018-07-16T13:29:16.925Z,99.90
2018-07-16T13:31:45.189Z,99.90
2018-07-16T13:34:13.239Z,99.90
2018-07-16T13:36:41.306Z,99.90
2018-07-16T13:39:10.522Z,99.90
2018-07-16T13:41:38.732Z,99.70
2018-07-16T13:44:06.932Z,99.20
2018-07-16T13:46:35.177Z,99.10
2018-07-16T13:49:03.201Z,99.70
2018-07-16T13:51:31.495Z,98.80
2018-07-16T13:53:59.668Z,99.30
2018-07-16T13:56:28.269Z,98.00
2018-07-16T13:58:56.354Z,98.00
2018-07-16T14:01:24.424Z,96.10
2018-07-16T14:03:52.521Z,96.00
2018-07-16T14:06:20.637Z,95.40
2018-07-16T14:08:48.869Z,95.00
2018-07-16T14:11:17.124Z,95.30
2018-07-16T14:13:45.181Z,94.40
2018-07-16T14:16:13.437Z,94.50
2018-07-16T14:21:09.637Z,94.50
2018-07-16T14:23:37.773Z,95.60
2018-07-16T14:26:06.021Z,94.60
2018-07-16T14:28:34.129Z,94.90
2018-07-16T14:31:02.199Z,95.30
2018-07-16T14:33:30.234Z,95.10
2018-07-16T14:35:58.296Z,94.90
2018-07-16T14:38:26.385Z,94.50
2018-07-16T14:40:54.473Z,94.10
2018-07-16T14:43:22.533Z,93.50
2018-07-16T14:45:50.585Z,92.70
2018-07-16T14:48:18.793Z,92.70
2018-07-16T14:50:46.850Z,94.10
2018-07-16T14:53:14.949Z,93.80
2018-07-16T14:55:43.008Z,93.00
2018-07-16T14:58:11.093Z,92.60
2018-07-16T15:00:39.165Z,93.20
2018-07-16T15:03:07.220Z,91.70
2018-07-16T15:05:35.271Z,92.10
2018-07-16T15:08:03.311Z,92.70
2018-07-16T15:10:31.378Z,91.80
2018-07-16T15:12:59.442Z,92.40
2018-07-16T15:15:27.495Z,91.50
2018-07-16T15:17:55.560Z,91.50
2018-07-16T15:20:23.724Z,92.10
2018-07-16T15:22:51.656Z,92.00
2018-07-16T15:25:19.725Z,91.70
2018-07-16T15:27:47.801Z,91.90
2018-07-16T15:30:16.129Z,91.70
2018-07-16T15:32:44.181Z,93.00
2018-07-16T15:37:40.097Z,91.80
2018-07-16T15:40:08.152Z,92.00
2018-07-16T15:42:36.212Z,91.80
2018-07-16T15:45:04.289Z,91.50
2018-07-16T15:47:32.354Z,92.00
2018-07-16T15:50:00.435Z,93.30
2018-07-16T15:52:28.510Z,93.40
2018-07-16T15:54:56.770Z,92.40
2018-07-16T15:57:24.958Z,92.10
2018-07-16T15:59:53.018Z,92.60
2018-07-16T16:02:21.089Z,92.10
2018-07-16T16:04:49.142Z,91.90
2018-07-16T16:07:17.206Z,92.00
2018-07-16T16:09:45.681Z,92.30
2018-07-16T16:12:13.757Z,93.00
2018-07-16T16:14:42.019Z,93.30
2018-07-16T16:17:10.088Z,93.40
2018-07-16T16:19:38.160Z,93.00
2018-07-16T16:22:06.323Z,93.00
2018-07-16T16:24:34.304Z,93.20
2018-07-16T16:27:03.176Z,93.70
2018-07-16T16:29:31.249Z,93.70
2018-07-16T16:31:59.322Z,94.10
2018-07-16T16:34:27.382Z,95.20
2018-07-16T16:36:55.480Z,94.80
2018-07-16T16:39:23.547Z,94.30
2018-07-16T16:41:52.342Z,93.90
2018-07-16T16:44:20.836Z,93.50
2018-07-16T16:46:50.360Z,93.90
2018-07-16T16:49:18.409Z,94.40
2018-07-16T16:51:46.606Z,94.30
2018-07-16T16:54:14.665Z,94.20
2018-07-16T16:56:42.746Z,94.40
2018-07-16T16:59:10.834Z,94.60
2018-07-16T17:01:38.902Z,94.60
2018-07-16T17:04:07.250Z,95.10
2018-07-16T17:06:35.310Z,95.20
2018-07-16T17:09:04.118Z,95.20
2018-07-16T17:11:32.169Z,95.60
2018-07-16T17:14:00.236Z,95.60
2018-07-16T17:16:28.805Z,95.70
2018-07-16T17:18:56.857Z,95.60
2018-07-16T17:21:24.909Z,95.90
2018-07-16T17:23:52.965Z,96.00
2018-07-16T17:26:21.131Z,96.30
2018-07-16T17:28:49.201Z,95.80
2018-07-16T17:31:17.449Z,96.20
2018-07-16T17:33:45.865Z,96.20
2018-07-16T17:36:13.930Z,95.20
2018-07-16T17:38:41.998Z,94.30
2018-07-16T17:41:10.215Z,93.80
2018-07-16T17:43:38.318Z,93.90
2018-07-16T17:46:06.413Z,93.90
2018-07-16T17:48:34.490Z,94.50
2018-07-16T17:51:02.544Z,94.60
2018-07-16T17:53:30.631Z,95.00
2018-07-16T17:55:58.661Z,95.40
2018-07-16T17:58:26.727Z,96.30
2018-07-16T18:00:54.784Z,95.80
2018-07-16T18:03:22.859Z,96.00
2018-07-16T18:05:50.902Z,96.00
2018-07-16T18:08:18.974Z,96.20
2018-07-16T18:10:47.049Z,96.10
2018-07-16T18:13:15.184Z,96.10
2018-07-16T18:15:43.186Z,95.50
2018-07-16T18:18:11.248Z,95.20
2018-07-16T18:20:39.299Z,95.50
2018-07-16T18:23:07.381Z,95.50
2018-07-16T18:25:35.445Z,95.70
2018-07-16T18:28:03.510Z,96.20
2018-07-16T18:30:31.624Z,96.50
2018-07-16T18:32:59.753Z,96.60
2018-07-16T18:35:28.420Z,96.90
2018-07-16T18:37:56.425Z,97.20
2018-07-16T18:40:24.481Z,97.50
2018-07-16T18:42:52.602Z,98.00
2018-07-16T18:45:20.661Z,98.50
2018-07-16T18:47:48.764Z,98.50
2018-07-16T18:50:16.833Z,98.80
2018-07-16T18:52:44.918Z,99.10
2018-07-16T18:55:13.206Z,99.40
2018-07-16T18:57:41.255Z,99.90
2018-07-16T19:00:10.073Z,99.90
2018-07-16T19:02:38.148Z,99.90
2018-07-16T19:05:06.886Z,99.90
2018-07-16T19:07:35.010Z,99.90
2018-07-16T19:10:03.203Z,99.90
2018-07-16T19:12:31.241Z,99.90
2018-07-16T19:14:59.301Z,99.90
2018-07-16T19:17:27.344Z,99.90
2018-07-16T19:19:55.414Z,99.90
2018-07-16T19:22:23.453Z,99.90
2018-07-16T19:24:51.511Z,99.90
2018-07-16T19:27:19.585Z,99.90
2018-07-16T19:29:47.673Z,99.90
2018-07-16T19:32:15.737Z,99.90
2018-07-16T19:34:43.786Z,99.90
2018-07-16T19:37:11.988Z,99.90
2018-07-16T19:39:40.013Z,99.90
2018-07-16T19:42:08.191Z,99.90
2018-07-16T19:44:36.430Z,99.90
2018-07-16T19:47:04.550Z,99.90
2018-07-16T19:49:32.622Z,99.90
2018-07-16T19:52:00.714Z,99.90
2018-07-16T19:54:28.843Z,99.90
2018-07-16T19:56:56.939Z,99.90
2018-07-16T19:59:24.994Z,99.90
2018-07-16T20:01:53.054Z,99.90
2018-07-16T20:04:21.169Z,99.90
2018-07-16T20:09:17.121Z,99.90
2018-07-16T20:11:45.150Z,99.90
2018-07-16T20:14:13.214Z,99.90
2018-07-16T20:16:44.079Z,99.90
2018-07-16T20:19:12.850Z,99.90
2018-07-16T20:21:41.126Z,99.90
2018-07-16T20:24:09.229Z,99.90
2018-07-16T20:26:37.293Z,99.90
2018-07-16T20:29:05.653Z,99.90
2018-07-16T20:31:33.858Z,99.90
2018-07-16T20:34:01.939Z,99.90
2018-07-16T20:36:30.057Z,99.90
2018-07-16T20:38:58.147Z,99.90
2018-07-16T20:41:26.233Z,99.90
2018-07-16T20:46:22.277Z,99.90
2018-07-16T20:48:51.282Z,99.90
2018-07-16T20:51:19.314Z,99.90
2018-07-16T20:53:47.413Z,99.90
2018-07-16T20:56:15.490Z,99.90
2018-07-16T20:58:43.676Z,99.90
2018-07-16T21:01:11.767Z,99.90
2018-07-16T21:03:39.829Z,99.90
2018-07-16T21:06:07.954Z,99.90
2018-07-16T21:08:36.009Z,99.90
2018-07-16T21:11:04.085Z,99.90
2018-07-16T21:13:32.140Z,99.90
2018-07-16T21:16:00.253Z,99.90
2018-07-16T21:18:28.313Z,99.90
2018-07-16T21:20:56.392Z,99.90
2018-07-16T21:23:24.437Z,99.90
2018-07-16T21:25:52.535Z,99.90
2018-07-16T21:28:20.705Z,99.90
2018-07-16T21:30:48.758Z,99.90
2018-07-16T21:33:16.832Z,99.90
2018-07-16T21:35:44.916Z,99.90
2018-07-16T21:38:12.993Z,99.90
2018-07-16T21:40:41.252Z,99.90
2018-07-16T21:43:09.113Z,99.90
2018-07-16T21:45:37.210Z,99.90
2018-07-16T21:48:05.282Z,99.90
2018-07-16T21:50:33.350Z,99.90
2018-07-16T21:53:01.414Z,99.90
2018-07-16T21:55:29.466Z,99.90
2018-07-16T22:00:28.828Z,99.90
2018-07-16T22:02:58.682Z,99.90
2018-07-16T22:05:27.477Z,99.90
2018-07-16T22:07:56.255Z,99.90
2018-07-16T22:10:25.170Z,99.90
2018-07-16T22:12:53.426Z,99.90
2018-07-16T22:15:28.467Z,99.90
2018-07-16T22:17:57.455Z,99.90
2018-07-16T22:20:26.296Z,99.90
2018-07-16T22:22:54.470Z,99.90
2018-07-16T22:25:23.367Z,99.90
2018-07-16T22:27:51.437Z,99.90
2018-07-16T22:30:19.782Z,99.90
2018-07-16T22:35:15.792Z,99.90
2018-07-16T22:37:43.853Z,99.90
2018-07-16T22:40:11.938Z,99.90
2018-07-16T22:42:39.990Z,99.90
2018-07-16T22:45:08.831Z,99.90
2018-07-16T22:47:36.962Z,99.90
2018-07-16T22:50:05.026Z,99.90
2018-07-16T22:52:33.089Z,99.90
2018-07-16T22:55:01.163Z,99.90
2018-07-16T22:57:29.261Z,99.90
2018-07-16T22:59:57.318Z,99.90
2018-07-16T23:02:25.382Z,99.90
2018-07-16T23:04:53.445Z,99.90
2018-07-16T23:07:21.686Z,99.90
2018-07-16T23:09:49.746Z,99.90
2018-07-16T23:12:17.815Z,99.90
2018-07-16T23:14:45.877Z,99.90
2018-07-16T23:17:13.957Z,99.90
2018-07-16T23:19:43.039Z,99.90
2018-07-16T23:22:12.070Z,99.90
2018-07-16T23:24:40.149Z,99.90
2018-07-16T23:27:08.206Z,99.90
2018-07-16T23:29:36.284Z,99.90
2018-07-16T23:32:04.324Z,99.90
2018-07-16T23:37:00.318Z,99.90
2018-07-16T23:39:28.386Z,99.90
2018-07-16T23:41:56.441Z,99.90
2018-07-16T23:44:24.497Z,99.90
2018-07-16T23:49:20.433Z,99.90
2018-07-16T23:51:48.510Z,99.90
2018-07-16T23:54:16.576Z,99.90
2018-07-16T23:56:44.633Z,99.90
2018-07-16T23:59:12.712Z,99.90
